Main page


Airports :

Hyderabad, India

Begumpet Airport

latitude: 17-27N, longitude: 078-28E, elevation: 530 m

Current weather observation

The report was made 17 minutes ago, at 06:00 UTC
Wind 3 kt from variable directions
Temperature 34°C
Humidity 32%
Pressure 1017 hPa
Visibility: 5000 m

METAR: VOHY 200600Z VRB03KT 5000 HZ NSC 34/15 Q1017 NOSIG

Time: 11:47 (06:17 UTC)

TAF: missing

Weather observations and forecasts of more than 4000 airports (METAR and TAF reports).

The available stations are represented by yellow and red dots on the map.

Hover mouse over dot to see the name of the station.

Then click to see weather observations and forecasts.

To change the map : click on the green buttons with a black cross to zoom in, on the green button with a dash to zoom out, or on the green arrows for adjacent maps.